CheckWX is a tool to help pilots better visualize weather data.  It is not intended as a substitute for an official pre-flight weather briefing.

15:59:03 UTC

KCHA METAR
Lovell Field Airport
Chattanooga, Tennessee, USA
Current

1 hour ago

KCHA 221453Z 21003KT 10SM FEW040 SCT075 SCT250 31/21 A3008 RMK AO2 SLP176 T03060206 51002
Observed
Aug-22 @ 14:53 UTC
Wind
  • 210° at 3 KTS
Visibility
10 SM
Flight Rules
VFR
Cloud Levels
  • Few at 4,000' AGL
  • Scattered at 7,500' AGL
  • Scattered at 25,000' AGL
Temperature
31°C / 88°F
Dewpoint
21°C / 70°F
Heat Index
34°C / 93°F
Humidity
55%
Altimeter
30.08" Hg
Pressure
1018.62 hPa
Previous

2 hours ago

KCHA 221353Z 25003KT 10SM FEW040 FEW075 SCT250 29/21 A3008 RMK AO2 SLP176 T02940206
Observed
Aug-22 @ 13:53 UTC
Wind
  • 250° at 3 KTS
Visibility
10 SM
Flight Rules
VFR
Cloud Levels
  • Few at 4,000' AGL
  • Few at 7,500' AGL
  • Scattered at 25,000' AGL
Temperature
29°C / 84°F
Dewpoint
21°C / 70°F
Heat Index
31°C / 88°F
Humidity
62%
Altimeter
30.08" Hg
Pressure
1018.62 hPa
Previous

3 hours ago

KCHA 221253Z 00000KT 10SM SCT040 SCT075 BKN250 27/21 A3009 RMK AO2 SLP179 T02720206
Observed
Aug-22 @ 12:53 UTC
Visibility
10 SM
Flight Rules
VFR
Cloud Levels
  • Scattered at 4,000' AGL
  • Scattered at 7,500' AGL
  • Broken at 25,000' AGL
Temperature
27°C / 81°F
Dewpoint
21°C / 70°F
Heat Index
29°C / 85°F
Humidity
70%
Altimeter
30.09" Hg
Pressure
1018.92 hPa